createdAt,value
2023-03-05T00:01:22.624Z,29.63
2023-03-05T00:03:49.976Z,28.38
2023-03-05T00:06:17.420Z,29.15
2023-03-05T00:08:44.390Z,30.10
2023-03-05T00:11:12.849Z,31.92
2023-03-05T00:13:39.926Z,32.08
2023-03-05T00:16:09.605Z,32.40
2023-03-05T00:18:36.708Z,32.38
2023-03-05T00:21:04.476Z,32.75
2023-03-05T00:23:31.426Z,33.42
2023-03-05T00:26:01.843Z,32.75
2023-03-05T00:28:28.523Z,32.75
2023-03-05T00:30:59.063Z,34.00
2023-03-05T00:33:25.757Z,34.53
2023-03-05T00:35:52.551Z,35.85
2023-03-05T00:38:19.466Z,34.13
2023-03-05T00:40:46.248Z,32.70
2023-03-05T00:43:12.973Z,33.22
2023-03-05T00:45:39.697Z,34.10
2023-03-05T00:48:06.745Z,33.83
2023-03-05T00:50:33.424Z,35.60
2023-03-05T00:53:00.158Z,33.83
2023-03-05T00:55:26.885Z,33.85
2023-03-05T00:57:53.588Z,33.22
2023-03-05T01:00:20.636Z,36.20
2023-03-05T01:02:47.442Z,33.70
2023-03-05T01:05:15.395Z,35.90
2023-03-05T01:07:42.283Z,34.40
2023-03-05T01:10:09.933Z,34.38
2023-03-05T01:12:36.749Z,33.30
2023-03-05T01:15:04.347Z,36.00
2023-03-05T01:17:31.168Z,36.03
2023-03-05T01:19:57.879Z,36.70
2023-03-05T01:22:24.657Z,36.47
2023-03-05T01:24:51.336Z,37.88
2023-03-05T01:27:18.021Z,37.58
2023-03-05T01:29:44.766Z,37.40
2023-03-05T01:32:11.532Z,38.28
2023-03-05T01:34:38.246Z,36.85
2023-03-05T01:37:05.052Z,37.42
2023-03-05T01:39:31.826Z,36.80
2023-03-05T01:41:58.500Z,39.00
2023-03-05T01:44:29.293Z,38.17
2023-03-05T01:46:56.543Z,38.22
2023-03-05T01:49:24.735Z,38.50
2023-03-05T01:52:20.062Z,38.80
2023-03-05T01:54:50.681Z,40.83
2023-03-05T01:57:22.747Z,40.10
2023-03-05T01:59:55.719Z,37.28
2023-03-05T02:02:22.663Z,37.50
2023-03-05T02:04:57.398Z,38.35
2023-03-05T02:07:25.414Z,38.83
2023-03-05T02:09:52.289Z,37.65
2023-03-05T02:12:19.157Z,39.22
2023-03-05T02:14:48.399Z,39.15
2023-03-05T02:17:16.013Z,38.88
2023-03-05T02:19:51.030Z,37.78
2023-03-05T02:22:19.739Z,37.35
2023-03-05T02:24:46.699Z,37.63
2023-03-05T02:27:14.542Z,39.30
2023-03-05T02:29:44.877Z,39.08
2023-03-05T02:32:12.655Z,38.15
2023-03-05T02:34:39.908Z,37.03
2023-03-05T02:37:09.114Z,36.35
2023-03-05T02:39:36.192Z,37.17
2023-03-05T02:42:03.221Z,38.53
2023-03-05T02:44:30.118Z,36.83
2023-03-05T02:46:56.991Z,37.88
2023-03-05T02:49:23.726Z,38.72
2023-03-05T02:51:50.536Z,36.50
2023-03-05T02:54:17.259Z,37.40
2023-03-05T02:56:44.004Z,39.00
2023-03-05T02:59:10.751Z,38.22
2023-03-05T03:01:37.548Z,37.80
2023-03-05T03:04:04.742Z,37.35
2023-03-05T03:06:31.485Z,37.60
2023-03-05T03:08:58.709Z,37.95
2023-03-05T03:11:25.583Z,36.70
2023-03-05T03:13:52.327Z,35.90
2023-03-05T03:16:19.233Z,38.15
2023-03-05T03:18:47.547Z,38.53
2023-03-05T03:21:24.076Z,38.45
2023-03-05T03:23:51.181Z,39.15
2023-03-05T03:26:18.308Z,37.45
2023-03-05T03:28:45.147Z,36.90
2023-03-05T03:31:12.138Z,36.85
2023-03-05T03:33:38.924Z,38.20
2023-03-05T03:36:06.079Z,37.33
2023-03-05T03:38:32.894Z,36.97
2023-03-05T03:40:59.654Z,36.92
2023-03-05T03:43:26.487Z,37.80
2023-03-05T03:45:53.317Z,39.65
2023-03-05T03:48:20.152Z,38.17
2023-03-05T03:50:46.901Z,37.63
2023-03-05T03:53:14.317Z,39.00
2023-03-05T03:55:46.594Z,38.15
2023-03-05T03:58:13.643Z,38.92
2023-03-05T04:00:41.597Z,37.33
2023-03-05T04:03:08.749Z,37.50
2023-03-05T04:05:35.478Z,36.40
2023-03-05T04:08:03.500Z,37.50
2023-03-05T04:10:30.390Z,38.00
2023-03-05T04:12:57.201Z,37.53
2023-03-05T04:15:24.916Z,38.25
2023-03-05T04:17:51.787Z,36.30
2023-03-05T04:20:18.588Z,38.10
2023-03-05T04:22:45.382Z,38.00
2023-03-05T04:25:12.076Z,37.10
2023-03-05T04:27:40.352Z,37.03
2023-03-05T04:30:10.179Z,37.35
2023-03-05T04:32:36.907Z,38.13
2023-03-05T04:35:03.956Z,36.72
2023-03-05T04:37:30.676Z,38.03
2023-03-05T04:39:57.454Z,37.47
2023-03-05T04:42:24.422Z,38.45
2023-03-05T04:44:51.589Z,37.83
2023-03-05T04:47:19.428Z,38.47
2023-03-05T04:49:46.291Z,36.40
2023-03-05T04:52:14.482Z,38.53
2023-03-05T04:54:41.596Z,37.00
2023-03-05T04:57:08.607Z,37.55
2023-03-05T04:59:36.297Z,38.80
2023-03-05T05:02:03.217Z,37.60
2023-03-05T05:04:29.975Z,37.45
2023-03-05T05:06:57.555Z,36.67
2023-03-05T05:09:25.029Z,38.33
2023-03-05T05:11:52.030Z,38.20
2023-03-05T05:14:19.269Z,38.55
2023-03-05T05:16:46.211Z,37.75
2023-03-05T05:19:12.945Z,38.53
2023-03-05T05:21:39.905Z,37.80
2023-03-05T05:24:07.031Z,37.08
2023-03-05T05:26:33.783Z,36.17
2023-03-05T05:29:00.525Z,36.53
2023-03-05T05:31:27.569Z,38.42
2023-03-05T05:33:54.350Z,36.72
2023-03-05T05:36:22.352Z,35.22
2023-03-05T05:38:49.265Z,38.97
2023-03-05T05:41:18.306Z,35.92
2023-03-05T05:43:45.177Z,37.75
2023-03-05T05:46:15.124Z,37.83
2023-03-05T05:48:41.957Z,36.28
2023-03-05T05:51:11.675Z,36.30
2023-03-05T05:53:38.891Z,37.45
2023-03-05T05:56:07.805Z,38.15
2023-03-05T05:58:35.310Z,37.28
2023-03-05T06:01:02.403Z,36.15
2023-03-05T06:03:29.257Z,37.45
2023-03-05T06:05:56.375Z,38.05
2023-03-05T06:08:23.050Z,36.97
2023-03-05T06:10:55.854Z,35.42
2023-03-05T06:13:22.592Z,36.90
2023-03-05T06:15:57.244Z,37.20
2023-03-05T06:18:24.022Z,34.87
2023-03-05T06:21:02.620Z,38.78
2023-03-05T06:23:29.583Z,35.08
2023-03-05T06:26:00.008Z,36.50
2023-03-05T06:28:27.233Z,37.40
2023-03-05T06:31:08.575Z,36.75
2023-03-05T06:33:35.979Z,37.67
2023-03-05T06:36:08.991Z,35.85
2023-03-05T06:38:36.458Z,35.90
2023-03-05T06:41:09.282Z,39.17
2023-03-05T06:43:38.554Z,36.80
2023-03-05T06:46:12.356Z,36.60
2023-03-05T06:48:39.673Z,37.42
2023-03-05T06:51:14.336Z,37.58
2023-03-05T06:53:41.195Z,38.07
2023-03-05T06:56:08.032Z,36.30
2023-03-05T06:58:34.752Z,36.88
2023-03-05T07:01:01.626Z,36.45
2023-03-05T07:03:28.441Z,36.20
2023-03-05T07:05:55.149Z,38.30
2023-03-05T07:08:21.870Z,38.72
2023-03-05T07:10:48.603Z,37.50
2023-03-05T07:13:15.317Z,36.17
2023-03-05T07:15:43.749Z,34.80
2023-03-05T07:18:10.586Z,36.35
2023-03-05T07:20:37.683Z,36.85
2023-03-05T07:23:04.966Z,37.95
2023-03-05T07:25:32.008Z,37.53
2023-03-05T07:27:58.977Z,36.85
2023-03-05T07:30:25.721Z,36.45
2023-03-05T07:32:52.398Z,38.55
2023-03-05T07:35:19.175Z,36.35
2023-03-05T07:37:45.919Z,37.28
2023-03-05T07:40:12.803Z,38.17
2023-03-05T07:42:39.527Z,38.17
2023-03-05T07:45:07.052Z,37.10
2023-03-05T07:47:33.820Z,37.65
2023-03-05T07:50:00.743Z,38.58
2023-03-05T07:52:27.537Z,38.65
2023-03-05T07:54:54.236Z,39.92
2023-03-05T07:57:20.929Z,37.92
2023-03-05T07:59:47.754Z,39.22
2023-03-05T08:02:14.840Z,38.72
2023-03-05T08:04:43.094Z,41.08
2023-03-05T08:07:09.861Z,41.90
2023-03-05T08:09:36.654Z,41.83
2023-03-05T08:12:03.471Z,41.85
2023-03-05T08:14:30.252Z,39.10
2023-03-05T08:16:56.967Z,41.60
2023-03-05T08:19:23.926Z,39.53
2023-03-05T08:21:50.738Z,40.97
2023-03-05T08:24:17.536Z,42.40
2023-03-05T08:26:44.416Z,40.58
2023-03-05T08:29:11.801Z,41.28
2023-03-05T08:31:39.429Z,40.17
2023-03-05T08:34:06.286Z,41.40
2023-03-05T08:36:33.314Z,40.45
2023-03-05T08:39:00.410Z,39.53
2023-03-05T08:41:27.130Z,41.65
2023-03-05T08:43:53.940Z,40.05
2023-03-05T08:46:20.985Z,40.08
2023-03-05T08:48:47.759Z,42.92
2023-03-05T08:51:17.302Z,43.15
2023-03-05T08:53:45.171Z,39.60
2023-03-05T08:56:12.255Z,41.03
2023-03-05T08:58:39.165Z,41.55
2023-03-05T09:01:06.545Z,41.60
2023-03-05T09:03:33.290Z,42.33
2023-03-05T09:06:06.789Z,42.80
2023-03-05T09:08:34.238Z,42.28
2023-03-05T09:11:06.198Z,43.15
2023-03-05T09:13:33.581Z,43.25
2023-03-05T09:16:03.261Z,42.28
2023-03-05T09:18:31.128Z,41.35
2023-03-05T09:20:57.925Z,41.25
2023-03-05T09:23:25.095Z,42.60
2023-03-05T09:25:51.781Z,40.47
2023-03-05T09:28:18.850Z,41.80
2023-03-05T09:30:45.657Z,40.97
2023-03-05T09:33:12.759Z,40.67
2023-03-05T09:35:39.573Z,41.42
2023-03-05T09:38:06.385Z,41.47
2023-03-05T09:41:03.473Z,42.13
2023-03-05T09:43:43.704Z,41.90
2023-03-05T09:46:32.821Z,41.95
2023-03-05T09:49:18.584Z,42.88
2023-03-05T09:51:47.057Z,42.95
2023-03-05T09:54:19.105Z,40.85
2023-03-05T09:56:53.352Z,39.95
2023-03-05T09:59:29.140Z,39.20
2023-03-05T10:02:01.379Z,39.65
2023-03-05T10:05:04.558Z,39.88
2023-03-05T10:07:34.456Z,38.80
2023-03-05T10:10:05.406Z,37.72
2023-03-05T10:12:43.062Z,38.25
2023-03-05T10:15:43.646Z,38.08
2023-03-05T10:18:46.374Z,34.50
2023-03-05T10:21:24.336Z,35.65
2023-03-05T10:24:17.056Z,37.03
2023-03-05T10:26:48.626Z,34.10
2023-03-05T10:29:40.169Z,34.10
2023-03-05T10:32:11.901Z,35.17
2023-03-05T10:34:53.028Z,33.42
2023-03-05T10:37:40.789Z,33.78
2023-03-05T10:40:32.535Z,34.30
2023-03-05T10:43:12.519Z,34.60
2023-03-05T10:45:42.417Z,35.42
2023-03-05T10:48:38.842Z,36.80
2023-03-05T10:51:36.347Z,36.47
2023-03-05T10:54:15.533Z,35.30
2023-03-05T10:56:42.291Z,33.83
2023-03-05T10:59:09.042Z,32.30
2023-03-05T11:01:37.388Z,33.60
2023-03-05T11:04:07.417Z,31.08
2023-03-05T11:06:45.741Z,29.83
2023-03-05T11:09:22.218Z,30.23
2023-03-05T11:12:18.329Z,29.88
2023-03-05T11:15:03.016Z,30.92
2023-03-05T11:17:33.831Z,30.85
2023-03-05T11:20:19.337Z,30.27
2023-03-05T11:23:18.675Z,28.88
2023-03-05T11:26:04.183Z,30.38
2023-03-05T11:28:34.015Z,27.08
2023-03-05T11:31:16.221Z,26.25
2023-03-05T11:34:00.992Z,26.33
2023-03-05T11:36:40.913Z,24.05
2023-03-05T11:39:07.751Z,24.05
2023-03-05T11:41:44.933Z,24.48
2023-03-05T11:44:16.532Z,23.77
2023-03-05T11:46:51.027Z,22.83
2023-03-05T11:49:27.432Z,23.23
2023-03-05T11:52:26.260Z,22.38
2023-03-05T11:54:55.701Z,24.10
2023-03-05T11:57:25.172Z,23.20
2023-03-05T11:59:55.224Z,23.02
2023-03-05T12:02:27.958Z,23.83
2023-03-05T12:04:56.041Z,23.10
2023-03-05T12:07:34.866Z,24.15
2023-03-05T12:10:02.255Z,24.45
2023-03-05T12:12:55.129Z,23.08
2023-03-05T12:15:30.957Z,24.75
2023-03-05T12:18:20.620Z,24.42
2023-03-05T12:21:06.126Z,24.52
2023-03-05T12:26:13.971Z,21.10
2023-03-05T12:28:45.799Z,20.55
2023-03-05T12:31:27.041Z,20.60
2023-03-05T12:33:54.175Z,21.90
2023-03-05T12:36:20.988Z,23.98
2023-03-05T12:38:55.400Z,21.27
2023-03-05T12:41:27.852Z,22.75
2023-03-05T12:44:07.003Z,22.90
2023-03-05T12:46:42.588Z,21.33
2023-03-05T12:49:18.864Z,22.98
2023-03-05T12:51:48.073Z,21.75
2023-03-05T12:54:29.711Z,22.10
2023-03-05T12:56:59.020Z,20.80
2023-03-05T12:59:39.205Z,20.38
2023-03-05T13:02:21.387Z,22.10
2023-03-05T13:04:48.686Z,21.52
2023-03-05T13:07:17.673Z,20.75
2023-03-05T13:09:58.843Z,20.58
2023-03-05T13:12:28.630Z,21.42
2023-03-05T13:15:03.769Z,20.00
2023-03-05T13:18:07.464Z,19.33
2023-03-05T13:20:38.650Z,20.67
2023-03-05T13:23:16.490Z,18.42
2023-03-05T13:26:04.298Z,19.42
2023-03-05T13:28:32.777Z,20.25
2023-03-05T13:31:03.764Z,20.38
2023-03-05T13:33:33.578Z,18.83
2023-03-05T13:36:00.633Z,20.10
2023-03-05T13:38:40.307Z,19.65
2023-03-05T13:41:27.502Z,18.63
2023-03-05T13:43:55.754Z,20.08
2023-03-05T13:46:31.377Z,19.95
2023-03-05T13:49:18.054Z,19.75
2023-03-05T13:51:47.645Z,19.35
2023-03-05T13:54:17.020Z,18.80
2023-03-05T13:56:54.388Z,18.65
2023-03-05T13:59:24.230Z,16.73
2023-03-05T14:01:52.672Z,17.98
2023-03-05T14:04:22.457Z,18.52
2023-03-05T14:07:00.238Z,18.85
2023-03-05T14:09:48.600Z,18.70
2023-03-05T14:12:21.369Z,18.40
2023-03-05T14:14:48.685Z,18.00
2023-03-05T14:17:24.145Z,19.40
2023-03-05T14:19:52.134Z,19.05
2023-03-05T14:22:37.682Z,18.90
2023-03-05T14:25:07.014Z,16.63
2023-03-05T14:27:35.885Z,16.58
2023-03-05T14:30:04.896Z,17.92
2023-03-05T14:32:37.056Z,17.40
2023-03-05T14:35:05.888Z,18.58
2023-03-05T14:37:42.735Z,18.08
2023-03-05T14:40:12.529Z,18.02
2023-03-05T14:43:00.049Z,16.20
2023-03-05T14:45:28.773Z,16.30
2023-03-05T14:47:58.639Z,16.27
2023-03-05T14:50:51.545Z,17.67
2023-03-05T14:53:20.416Z,17.48
2023-03-05T14:55:50.620Z,16.85
2023-03-05T14:58:25.189Z,16.35
2023-03-05T15:00:53.575Z,15.47
2023-03-05T15:03:21.942Z,16.55
2023-03-05T15:05:52.227Z,16.48
2023-03-05T15:08:22.429Z,15.88
2023-03-05T15:10:52.121Z,16.90
2023-03-05T15:13:19.390Z,15.85
2023-03-05T15:15:47.831Z,16.00
2023-03-05T15:18:17.490Z,15.70
2023-03-05T15:20:45.316Z,16.00
2023-03-05T15:23:12.891Z,16.13
2023-03-05T15:25:39.776Z,15.18
2023-03-05T15:28:06.604Z,16.20
2023-03-05T15:30:36.831Z,16.15
2023-03-05T15:33:06.787Z,16.17
2023-03-05T15:35:33.746Z,14.05
2023-03-05T15:38:00.822Z,15.73
2023-03-05T15:40:28.385Z,16.13
2023-03-05T15:42:56.604Z,15.50
2023-03-05T15:45:23.857Z,16.13
2023-03-05T15:47:51.824Z,16.00
2023-03-05T15:50:20.441Z,15.35
2023-03-05T15:52:47.353Z,16.17
2023-03-05T15:55:14.202Z,16.13
2023-03-05T15:57:44.775Z,16.80
2023-03-05T16:00:12.883Z,15.38
2023-03-05T16:02:39.637Z,16.90
2023-03-05T16:05:07.350Z,16.83
2023-03-05T16:07:36.936Z,16.88
2023-03-05T16:10:04.263Z,17.15
2023-03-05T16:12:40.765Z,15.63
2023-03-05T16:15:10.361Z,15.40
2023-03-05T16:17:38.561Z,15.75
2023-03-05T16:20:06.020Z,17.05
2023-03-05T16:22:33.221Z,15.77
2023-03-05T16:25:01.282Z,16.10
2023-03-05T16:27:29.517Z,16.35
2023-03-05T16:29:56.372Z,15.73
2023-03-05T16:32:23.134Z,16.35
2023-03-05T16:34:49.985Z,16.95
2023-03-05T16:37:22.190Z,15.05
2023-03-05T16:39:49.580Z,14.48
2023-03-05T16:42:16.948Z,14.27
2023-03-05T16:44:44.766Z,14.63
2023-03-05T16:47:12.260Z,16.42
2023-03-05T16:49:39.858Z,15.73
2023-03-05T16:52:18.448Z,15.55
2023-03-05T16:54:46.895Z,15.10
2023-03-05T16:57:13.909Z,14.13
2023-03-05T16:59:41.464Z,15.02
2023-03-05T17:02:08.206Z,15.98
2023-03-05T17:04:35.353Z,14.38
2023-03-05T17:07:04.023Z,15.50
2023-03-05T17:09:30.914Z,14.65
2023-03-05T17:11:57.714Z,14.68
2023-03-05T17:14:24.536Z,15.82
2023-03-05T17:16:51.247Z,15.05
2023-03-05T17:19:18.254Z,16.33
2023-03-05T17:21:45.273Z,16.17
2023-03-05T17:24:12.257Z,15.38
2023-03-05T17:26:39.361Z,17.10
2023-03-05T17:29:06.820Z,16.67
2023-03-05T17:31:34.129Z,15.93
2023-03-05T17:34:00.920Z,15.65
2023-03-05T17:36:27.763Z,16.90
2023-03-05T17:38:54.853Z,15.00
2023-03-05T17:41:22.036Z,12.15
2023-03-05T17:43:49.165Z,11.23
2023-03-05T17:46:16.834Z,8.98
2023-03-05T17:48:44.156Z,6.82
2023-03-05T17:51:13.092Z,5.88
2023-03-05T17:53:40.343Z,6.35
2023-03-05T17:56:12.172Z,6.10
2023-03-05T17:58:39.700Z,6.32
2023-03-05T18:01:07.921Z,6.05
2023-03-05T18:03:36.052Z,5.80
2023-03-05T18:06:03.792Z,5.32
2023-03-05T18:08:30.781Z,5.30
2023-03-05T18:10:57.690Z,5.78
2023-03-05T18:13:24.527Z,5.72
2023-03-05T18:15:51.283Z,5.93
2023-03-05T18:18:18.714Z,6.10
2023-03-05T18:20:45.881Z,6.05
2023-03-05T18:23:13.074Z,6.10
2023-03-05T18:25:40.038Z,5.95
2023-03-05T18:28:09.667Z,5.97
2023-03-05T18:30:37.188Z,6.20
2023-03-05T18:33:04.547Z,6.28
2023-03-05T18:35:32.253Z,6.28
2023-03-05T18:37:59.609Z,6.50
2023-03-05T18:40:29.338Z,7.30
2023-03-05T18:42:56.149Z,7.60
2023-03-05T18:45:23.668Z,7.65
2023-03-05T18:47:54.065Z,8.10
2023-03-05T18:50:23.633Z,7.53
2023-03-05T18:52:50.384Z,7.38
2023-03-05T18:55:20.367Z,7.50
2023-03-05T18:57:47.230Z,6.90
2023-03-05T19:00:19.741Z,8.15
2023-03-05T19:02:46.985Z,7.72
2023-03-05T19:05:15.035Z,8.10
2023-03-05T19:07:42.076Z,7.40
2023-03-05T19:10:12.305Z,8.30
2023-03-05T19:13:50.231Z,8.20
2023-03-05T19:16:22.876Z,7.20
2023-03-05T19:19:22.484Z,8.27
2023-03-05T19:21:59.599Z,8.80
2023-03-05T19:24:28.701Z,8.30
2023-03-05T19:26:58.160Z,8.98
2023-03-05T19:29:26.967Z,9.70
2023-03-05T19:31:54.627Z,9.55
2023-03-05T19:34:21.707Z,9.27
2023-03-05T19:36:48.439Z,8.90
2023-03-05T19:39:15.613Z,8.93
2023-03-05T19:41:42.608Z,8.90
2023-03-05T19:44:09.332Z,8.80
2023-03-05T19:46:36.166Z,9.57
2023-03-05T19:49:03.133Z,8.48
2023-03-05T19:51:30.011Z,10.02
2023-03-05T19:53:56.764Z,10.07
2023-03-05T19:56:23.584Z,11.15
2023-03-05T19:58:50.865Z,9.57
2023-03-05T20:01:22.048Z,10.43
2023-03-05T20:03:54.899Z,10.00
2023-03-05T20:06:23.530Z,10.95
2023-03-05T20:08:50.691Z,10.93
2023-03-05T20:11:18.967Z,10.63
2023-03-05T20:13:46.469Z,10.95
2023-03-05T20:16:19.534Z,9.23
2023-03-05T20:18:47.187Z,10.98
2023-03-05T20:21:21.371Z,10.32
2023-03-05T20:23:49.459Z,10.52
2023-03-05T20:26:16.701Z,10.45
2023-03-05T20:28:44.202Z,11.38
2023-03-05T20:31:11.512Z,11.43
2023-03-05T20:33:38.945Z,10.95
2023-03-05T20:36:06.229Z,12.18
2023-03-05T20:38:33.410Z,11.77
2023-03-05T20:41:01.404Z,12.70
2023-03-05T20:43:31.644Z,12.20
2023-03-05T20:45:59.297Z,12.48
2023-03-05T20:48:28.781Z,12.48
2023-03-05T20:50:56.537Z,12.73
2023-03-05T20:53:25.204Z,13.30
2023-03-05T20:55:52.143Z,12.35
2023-03-05T20:58:19.240Z,12.93
2023-03-05T21:00:46.149Z,13.45
2023-03-05T21:03:13.352Z,13.88
2023-03-05T21:05:40.477Z,13.40
2023-03-05T21:08:07.563Z,12.73
2023-03-05T21:10:34.726Z,13.55
2023-03-05T21:13:01.886Z,13.90
2023-03-05T21:15:30.524Z,13.27
2023-03-05T21:17:58.295Z,13.30
2023-03-05T21:20:30.111Z,13.55
2023-03-05T21:22:58.137Z,13.70
2023-03-05T21:25:32.960Z,13.27
2023-03-05T21:28:01.369Z,13.37
2023-03-05T21:30:43.816Z,12.60
2023-03-05T21:33:19.539Z,14.05
2023-03-05T21:35:46.754Z,14.13
2023-03-05T21:38:14.444Z,13.88
2023-03-05T21:40:44.500Z,13.73
2023-03-05T21:43:13.532Z,12.68
2023-03-05T21:45:41.478Z,12.90
2023-03-05T21:48:09.351Z,14.15
2023-03-05T21:50:39.420Z,13.70
2023-03-05T21:53:06.284Z,13.60
2023-03-05T21:56:25.320Z,14.07
2023-03-05T21:58:53.616Z,14.07
2023-03-05T22:01:21.250Z,13.23
2023-03-05T22:03:49.454Z,13.10
2023-03-05T22:06:17.828Z,15.63
2023-03-05T22:08:44.673Z,14.63
2023-03-05T22:11:14.568Z,13.10
2023-03-05T22:13:42.138Z,14.40
2023-03-05T22:16:09.243Z,13.80
2023-03-05T22:18:37.140Z,13.85
2023-03-05T22:21:04.766Z,13.23
2023-03-05T22:23:36.693Z,13.40
2023-03-05T22:26:06.478Z,14.65
2023-03-05T22:28:34.335Z,12.50
2023-03-05T22:31:01.725Z,13.38
2023-03-05T22:33:28.926Z,14.15
2023-03-05T22:35:55.717Z,13.35
2023-03-05T22:38:23.543Z,13.50
2023-03-05T22:40:50.832Z,13.15
2023-03-05T22:43:18.937Z,13.70
2023-03-05T22:45:45.653Z,14.10
2023-03-05T22:48:14.166Z,13.82
2023-03-05T22:50:43.808Z,13.15
2023-03-05T22:53:11.262Z,13.48
2023-03-05T22:55:41.105Z,12.07
2023-03-05T22:58:08.034Z,12.55
2023-03-05T23:00:34.817Z,14.48
2023-03-05T23:03:01.778Z,13.00
2023-03-05T23:05:28.569Z,12.82
2023-03-05T23:07:55.360Z,14.45
2023-03-05T23:10:26.927Z,12.48
2023-03-05T23:12:55.700Z,12.07
2023-03-05T23:15:26.921Z,11.95
2023-03-05T23:17:54.056Z,12.70
2023-03-05T23:20:23.444Z,13.50
2023-03-05T23:22:52.917Z,13.30
2023-03-05T23:25:20.524Z,13.73
2023-03-05T23:27:47.287Z,13.48
2023-03-05T23:30:21.191Z,11.82
2023-03-05T23:32:54.630Z,12.85
2023-03-05T23:35:24.749Z,12.27
2023-03-05T23:37:52.543Z,12.77
2023-03-05T23:40:27.420Z,13.52
2023-03-05T23:42:54.537Z,13.98
2023-03-05T23:45:22.659Z,12.70
2023-03-05T23:47:49.938Z,12.20
2023-03-05T23:50:21.466Z,12.82
2023-03-05T23:52:49.210Z,11.60
2023-03-05T23:55:22.512Z,11.07
2023-03-05T23:57:49.334Z,11.52
